createdAt,value
2019-03-29T00:00:28.183Z,12.25
2019-03-29T00:02:57.129Z,12.23
2019-03-29T00:05:25.991Z,12.21
2019-03-29T00:07:54.866Z,12.18
2019-03-29T00:10:23.735Z,12.17
2019-03-29T00:12:52.625Z,12.15
2019-03-29T00:15:21.850Z,12.12
2019-03-29T00:17:50.848Z,12.12
2019-03-29T00:20:20.180Z,12.11
2019-03-29T00:22:49.384Z,12.10
2019-03-29T00:25:18.256Z,12.08
2019-03-29T00:27:47.220Z,12.06
2019-03-29T00:30:16.101Z,12.02
2019-03-29T00:32:44.964Z,12.00
2019-03-29T00:35:14.211Z,11.98
2019-03-29T00:37:53.504Z,11.95
2019-03-29T00:40:13.890Z,11.92
2019-03-29T00:42:43.111Z,11.83
2019-03-29T00:45:13.584Z,11.72
2019-03-29T00:47:43.059Z,11.66
2019-03-29T00:50:12.027Z,11.61
2019-03-29T00:52:40.929Z,11.61
2019-03-29T00:55:09.826Z,11.58
2019-03-29T00:57:38.698Z,11.56
2019-03-29T01:00:09.140Z,11.55
2019-03-29T01:02:38.313Z,11.52
2019-03-29T01:05:07.287Z,11.47
2019-03-29T01:07:37.444Z,11.44
2019-03-29T01:10:07.639Z,11.33
2019-03-29T01:12:36.502Z,11.20
2019-03-29T01:15:09.117Z,11.16
2019-03-29T01:17:38.376Z,11.11
2019-03-29T01:20:08.651Z,11.06
2019-03-29T01:22:37.633Z,11.02
2019-03-29T01:25:08.009Z,10.98
2019-03-29T01:27:37.095Z,10.88
2019-03-29T01:30:06.289Z,10.82
2019-03-29T01:32:35.159Z,10.79
2019-03-29T01:35:04.557Z,10.75
2019-03-29T01:37:33.426Z,10.70
2019-03-29T01:40:02.333Z,10.65
2019-03-29T01:42:31.198Z,10.63
2019-03-29T01:45:01.262Z,10.62
2019-03-29T01:47:30.272Z,10.61
2019-03-29T01:49:59.257Z,10.59
2019-03-29T01:52:30.232Z,10.59
2019-03-29T01:55:00.663Z,10.56
2019-03-29T01:57:29.525Z,10.54
2019-03-29T01:59:58.474Z,10.54
2019-03-29T02:02:27.675Z,10.54
2019-03-29T02:04:56.556Z,10.53
2019-03-29T02:07:25.438Z,10.52
2019-03-29T02:09:54.369Z,10.51
2019-03-29T02:12:23.228Z,10.51
2019-03-29T02:14:52.161Z,10.50
2019-03-29T02:17:21.247Z,10.50
2019-03-29T02:19:50.912Z,10.50
2019-03-29T02:22:19.778Z,10.49
2019-03-29T02:24:49.314Z,10.50
2019-03-29T02:27:19.299Z,10.49
2019-03-29T02:29:48.568Z,10.50
2019-03-29T02:32:17.408Z,10.50
2019-03-29T02:34:46.688Z,10.49
2019-03-29T02:37:16.851Z,10.49
2019-03-29T02:39:45.807Z,10.48
2019-03-29T02:42:16.100Z,10.48
2019-03-29T02:44:45.025Z,10.47
2019-03-29T02:47:14.986Z,10.46
2019-03-29T02:49:43.938Z,10.47
2019-03-29T02:52:12.802Z,10.46
2019-03-29T02:54:41.764Z,10.46
2019-03-29T02:57:10.714Z,10.46
2019-03-29T02:59:39.708Z,10.46
2019-03-29T03:02:08.559Z,10.44
2019-03-29T03:04:37.518Z,10.44
2019-03-29T03:07:06.345Z,10.42
2019-03-29T03:09:35.253Z,10.42
2019-03-29T03:12:04.097Z,10.41
2019-03-29T03:14:33.019Z,10.39
2019-03-29T03:17:01.892Z,10.39
2019-03-29T03:19:30.851Z,10.38
2019-03-29T03:21:59.717Z,10.36
2019-03-29T03:24:28.667Z,10.35
2019-03-29T03:26:57.842Z,10.33
2019-03-29T03:29:26.731Z,10.32
2019-03-29T03:31:55.602Z,10.29
2019-03-29T03:34:24.501Z,10.28
2019-03-29T03:36:53.340Z,10.26
2019-03-29T03:39:31.587Z,10.25
2019-03-29T03:41:54.044Z,10.23
2019-03-29T03:44:22.973Z,10.20
2019-03-29T03:46:51.847Z,10.19
2019-03-29T03:49:21.752Z,10.16
2019-03-29T03:51:50.677Z,10.13
2019-03-29T03:54:19.949Z,10.11
2019-03-29T03:56:50.715Z,10.09
2019-03-29T03:59:22.228Z,10.05
2019-03-29T04:01:51.115Z,10.02
2019-03-29T04:04:20.427Z,9.99
2019-03-29T04:06:49.277Z,9.92
2019-03-29T04:09:18.434Z,9.82
2019-03-29T04:11:47.299Z,9.78
2019-03-29T04:14:16.194Z,9.77
2019-03-29T04:16:45.057Z,9.78
2019-03-29T04:19:15.294Z,9.79
2019-03-29T04:21:44.165Z,9.79
2019-03-29T04:24:14.380Z,9.78
2019-03-29T04:26:43.243Z,9.76
2019-03-29T04:29:12.125Z,9.75
2019-03-29T04:31:40.997Z,9.74
2019-03-29T04:34:09.926Z,9.72
2019-03-29T04:36:38.761Z,9.71
2019-03-29T04:39:07.717Z,9.69
2019-03-29T04:41:36.562Z,9.66
2019-03-29T04:44:05.491Z,9.64
2019-03-29T04:46:34.402Z,9.61
2019-03-29T04:49:03.440Z,9.56
2019-03-29T04:51:32.342Z,9.51
2019-03-29T04:54:01.830Z,9.47
2019-03-29T04:56:31.542Z,9.47
2019-03-29T04:59:00.678Z,9.44
2019-03-29T05:01:29.520Z,9.42
2019-03-29T05:03:58.443Z,9.41
2019-03-29T05:06:27.293Z,9.41
2019-03-29T05:08:56.224Z,9.40
2019-03-29T05:11:25.079Z,9.39
2019-03-29T05:13:54.371Z,9.37
2019-03-29T05:16:23.222Z,9.32
2019-03-29T05:18:52.129Z,9.30
2019-03-29T05:21:21.458Z,9.29
2019-03-29T05:23:50.349Z,9.28
2019-03-29T05:26:19.255Z,9.27
2019-03-29T05:28:48.120Z,9.27
2019-03-29T05:31:18.625Z,9.26
2019-03-29T05:33:48.484Z,9.25
2019-03-29T05:36:17.344Z,9.25
2019-03-29T05:38:46.248Z,9.25
2019-03-29T05:41:16.705Z,9.25
2019-03-29T05:43:46.008Z,9.25
2019-03-29T05:46:14.875Z,9.25
2019-03-29T05:48:43.761Z,9.25
2019-03-29T05:51:12.666Z,9.25
2019-03-29T05:53:41.555Z,9.25
2019-03-29T05:56:10.409Z,9.26
2019-03-29T05:58:39.309Z,9.27
2019-03-29T06:01:08.224Z,9.27
2019-03-29T06:03:40.104Z,9.28
2019-03-29T06:06:09.002Z,9.31
2019-03-29T06:08:37.883Z,9.34
2019-03-29T06:11:06.791Z,9.38
2019-03-29T06:13:35.741Z,9.42
2019-03-29T06:16:06.214Z,9.46
2019-03-29T06:18:35.338Z,9.51
2019-03-29T06:21:04.211Z,9.54
2019-03-29T06:23:33.458Z,9.59
2019-03-29T06:26:02.435Z,9.65
2019-03-29T06:28:31.422Z,9.70
2019-03-29T06:31:00.301Z,9.78
2019-03-29T06:33:29.219Z,9.84
2019-03-29T06:36:00.402Z,9.92
2019-03-29T06:38:33.197Z,9.99
2019-03-29T06:41:03.609Z,10.07
2019-03-29T06:43:32.695Z,10.15
2019-03-29T06:46:01.555Z,10.24
2019-03-29T06:48:30.460Z,10.34
2019-03-29T06:50:59.349Z,10.45
2019-03-29T06:53:28.705Z,10.54
2019-03-29T06:55:59.454Z,10.66
2019-03-29T06:58:32.813Z,10.77
2019-03-29T07:01:01.838Z,10.88
2019-03-29T07:03:30.710Z,11.02
2019-03-29T07:06:11.793Z,11.16
2019-03-29T07:08:40.722Z,11.31
2019-03-29T07:11:17.325Z,11.49
2019-03-29T07:13:40.442Z,11.70
2019-03-29T07:16:09.394Z,11.89
2019-03-29T07:18:38.578Z,12.11
2019-03-29T07:21:20.780Z,12.33
2019-03-29T07:23:38.641Z,12.54
2019-03-29T07:26:07.497Z,12.78
2019-03-29T07:28:37.501Z,13.03
2019-03-29T07:31:06.408Z,13.28
2019-03-29T07:33:35.554Z,13.50
2019-03-29T07:36:04.441Z,13.73
2019-03-29T07:38:33.654Z,13.94
2019-03-29T07:41:02.645Z,14.16
2019-03-29T07:43:31.556Z,14.43
2019-03-29T07:46:00.714Z,14.69
2019-03-29T07:48:29.605Z,14.97
2019-03-29T07:50:58.494Z,15.28
2019-03-29T07:53:27.375Z,15.61
2019-03-29T07:55:56.572Z,15.94
2019-03-29T07:58:25.488Z,16.24
2019-03-29T08:00:54.360Z,16.50
2019-03-29T08:03:23.616Z,16.76
2019-03-29T08:05:53.129Z,17.03
2019-03-29T08:08:24.646Z,17.26
2019-03-29T08:10:53.984Z,17.53
2019-03-29T08:13:23.845Z,17.81
2019-03-29T08:15:52.809Z,18.09
2019-03-29T08:18:22.046Z,18.39
2019-03-29T08:20:51.279Z,18.70
2019-03-29T08:23:20.562Z,18.96
2019-03-29T08:25:49.470Z,19.25
2019-03-29T08:28:18.701Z,19.54
2019-03-29T08:30:47.650Z,19.87
2019-03-29T08:33:18.118Z,20.20
2019-03-29T08:35:47.067Z,20.54
2019-03-29T08:38:15.929Z,20.90
2019-03-29T08:40:45.355Z,21.22
2019-03-29T08:43:14.627Z,21.49
2019-03-29T08:45:43.896Z,21.72
2019-03-29T08:48:12.762Z,21.97
2019-03-29T08:50:41.704Z,22.24
2019-03-29T08:53:10.531Z,22.54
2019-03-29T08:55:45.741Z,22.82
2019-03-29T08:58:10.277Z,23.12
2019-03-29T09:00:39.189Z,23.41
2019-03-29T09:03:08.025Z,23.76
2019-03-29T09:05:39.174Z,24.12
2019-03-29T09:08:16.035Z,24.46
2019-03-29T09:10:52.622Z,24.79
2019-03-29T09:13:22.081Z,25.05
2019-03-29T09:15:50.963Z,25.25
2019-03-29T09:18:19.816Z,25.45
2019-03-29T09:20:48.677Z,25.66
2019-03-29T09:23:18.687Z,25.87
2019-03-29T09:25:47.573Z,26.10
2019-03-29T09:28:16.541Z,26.24
2019-03-29T09:30:45.457Z,26.36
2019-03-29T09:33:14.315Z,26.48
2019-03-29T09:35:43.289Z,26.63
2019-03-29T09:38:12.113Z,26.79
2019-03-29T09:40:40.999Z,26.93
2019-03-29T09:43:09.852Z,27.06
2019-03-29T09:45:41.130Z,27.14
2019-03-29T09:48:09.952Z,27.28
2019-03-29T09:50:38.860Z,27.45
2019-03-29T09:53:07.725Z,27.69
2019-03-29T09:55:36.582Z,27.86
2019-03-29T09:58:05.481Z,28.02
2019-03-29T10:00:34.329Z,28.14
2019-03-29T10:03:03.598Z,28.29
2019-03-29T10:05:32.567Z,28.45
2019-03-29T10:08:01.669Z,28.63
2019-03-29T10:10:30.469Z,28.81
2019-03-29T10:12:59.335Z,28.99
2019-03-29T10:15:28.209Z,29.15
2019-03-29T10:17:57.089Z,29.23
2019-03-29T10:20:25.930Z,29.35
2019-03-29T10:22:54.829Z,29.45
2019-03-29T10:25:23.727Z,29.53
2019-03-29T10:27:52.611Z,29.40
2019-03-29T10:30:37.420Z,29.29
2019-03-29T10:33:06.364Z,29.40
2019-03-29T10:35:50.249Z,29.57
2019-03-29T10:38:06.040Z,29.69
2019-03-29T10:40:35.237Z,29.75
2019-03-29T10:43:04.535Z,29.78
2019-03-29T10:45:39.563Z,29.85
2019-03-29T10:48:05.520Z,30.00
2019-03-29T10:50:34.668Z,30.17
2019-03-29T10:53:03.527Z,30.38
2019-03-29T10:55:32.461Z,30.60
2019-03-29T10:58:01.326Z,30.86
2019-03-29T11:00:38.733Z,31.13
2019-03-29T11:03:08.252Z,31.37
2019-03-29T11:05:37.585Z,31.66
2019-03-29T11:08:06.529Z,31.87
2019-03-29T11:10:36.328Z,32.13
2019-03-29T11:13:13.167Z,32.35
2019-03-29T11:15:37.880Z,32.58
2019-03-29T11:18:07.290Z,32.76
2019-03-29T11:20:36.256Z,32.85
2019-03-29T11:23:05.190Z,32.95
2019-03-29T11:25:34.365Z,32.99
2019-03-29T11:28:03.431Z,32.99
2019-03-29T11:30:42.030Z,32.99
2019-03-29T11:33:03.317Z,33.07
2019-03-29T11:35:32.177Z,33.09
2019-03-29T11:38:02.383Z,33.01
2019-03-29T11:40:31.277Z,33.06
2019-03-29T11:43:00.315Z,33.30
2019-03-29T11:45:29.672Z,33.54
2019-03-29T11:48:08.306Z,33.78
2019-03-29T11:50:29.762Z,34.09
2019-03-29T11:52:58.738Z,34.35
2019-03-29T11:55:27.608Z,34.48
2019-03-29T11:57:57.797Z,34.56
2019-03-29T12:00:35.076Z,34.68
2019-03-29T12:03:09.070Z,34.86
2019-03-29T12:05:36.706Z,35.01
2019-03-29T12:08:06.098Z,35.09
2019-03-29T12:10:35.464Z,35.19
2019-03-29T12:13:06.435Z,35.29
2019-03-29T12:15:35.505Z,35.35
2019-03-29T12:18:04.445Z,35.47
2019-03-29T12:20:33.611Z,35.63
2019-03-29T12:23:02.792Z,35.70
2019-03-29T12:25:31.764Z,35.57
2019-03-29T12:28:02.794Z,35.49
2019-03-29T12:30:32.561Z,35.49
2019-03-29T12:33:01.714Z,35.43
2019-03-29T12:35:30.591Z,35.31
2019-03-29T12:37:59.522Z,35.28
2019-03-29T12:40:28.485Z,35.29
2019-03-29T12:42:57.349Z,35.28
2019-03-29T12:45:26.286Z,35.13
2019-03-29T12:47:55.424Z,35.07
2019-03-29T12:50:24.396Z,35.17
2019-03-29T12:52:53.372Z,35.27
2019-03-29T12:55:23.510Z,35.32
2019-03-29T12:57:52.864Z,35.34
2019-03-29T13:00:21.800Z,35.38
2019-03-29T13:02:52.306Z,35.42
2019-03-29T13:05:22.687Z,35.51
2019-03-29T13:07:53.265Z,35.59
2019-03-29T13:10:22.629Z,35.61
2019-03-29T13:12:51.491Z,35.54
2019-03-29T13:15:21.549Z,35.43
2019-03-29T13:17:50.516Z,35.31
2019-03-29T13:20:19.357Z,35.16
2019-03-29T13:22:48.258Z,35.04
2019-03-29T13:25:17.076Z,35.00
2019-03-29T13:27:46.058Z,35.01
2019-03-29T13:30:17.170Z,35.07
2019-03-29T13:32:47.337Z,35.10
2019-03-29T13:35:16.336Z,35.13
2019-03-29T13:37:45.206Z,35.13
2019-03-29T13:40:14.458Z,35.11
2019-03-29T13:42:43.323Z,35.06
2019-03-29T13:45:12.269Z,35.04
2019-03-29T13:47:41.164Z,34.99
2019-03-29T13:50:10.812Z,34.94
2019-03-29T13:52:39.684Z,34.87
2019-03-29T13:55:08.634Z,34.82
2019-03-29T13:57:37.571Z,34.76
2019-03-29T14:00:10.841Z,34.71
2019-03-29T14:02:39.966Z,34.64
2019-03-29T14:05:10.908Z,34.56
2019-03-29T14:07:39.749Z,34.45
2019-03-29T14:10:10.246Z,34.39
2019-03-29T14:12:40.991Z,34.34
2019-03-29T14:15:11.457Z,34.25
2019-03-29T14:17:40.383Z,34.15
2019-03-29T14:20:10.164Z,34.04
2019-03-29T14:22:39.059Z,33.98
2019-03-29T14:25:08.273Z,33.88
2019-03-29T14:27:38.222Z,33.76
2019-03-29T14:30:09.316Z,33.64
2019-03-29T14:32:38.185Z,33.49
2019-03-29T14:35:38.585Z,33.22
2019-03-29T14:38:15.989Z,32.97
2019-03-29T14:40:45.157Z,32.65
2019-03-29T14:43:14.012Z,32.41
2019-03-29T14:45:42.876Z,32.21
2019-03-29T14:48:11.780Z,32.10
2019-03-29T14:50:40.789Z,31.95
2019-03-29T14:53:09.633Z,31.70
2019-03-29T14:55:38.544Z,31.42
2019-03-29T14:58:07.433Z,31.18
2019-03-29T15:00:41.840Z,30.94
2019-03-29T15:03:11.119Z,30.72
2019-03-29T15:05:40.896Z,30.54
2019-03-29T15:08:11.612Z,30.41
2019-03-29T15:10:40.506Z,30.27
2019-03-29T15:13:09.408Z,30.09
2019-03-29T15:15:38.235Z,29.92
2019-03-29T15:18:07.450Z,29.72
2019-03-29T15:20:36.250Z,29.52
2019-03-29T15:23:05.240Z,29.29
2019-03-29T15:25:35.148Z,29.06
2019-03-29T15:28:03.974Z,28.87
2019-03-29T15:30:32.773Z,28.67
2019-03-29T15:33:01.921Z,28.45
2019-03-29T15:35:30.777Z,28.27
2019-03-29T15:38:00.730Z,28.08
2019-03-29T15:40:29.551Z,27.85
2019-03-29T15:42:58.392Z,27.62
2019-03-29T15:45:27.395Z,27.41
2019-03-29T15:47:56.260Z,27.19
2019-03-29T15:50:25.206Z,27.00
2019-03-29T15:52:54.073Z,26.78
2019-03-29T15:55:24.973Z,26.61
2019-03-29T15:57:53.685Z,26.47
2019-03-29T16:00:22.518Z,26.32
2019-03-29T16:02:51.531Z,26.19
2019-03-29T16:05:21.790Z,26.05
2019-03-29T16:07:50.866Z,25.91
2019-03-29T16:10:20.075Z,25.75
2019-03-29T16:12:48.907Z,25.61
2019-03-29T16:15:28.179Z,25.49
2019-03-29T16:17:50.326Z,25.36
2019-03-29T16:20:20.271Z,25.24
2019-03-29T16:22:49.128Z,25.12
2019-03-29T16:25:19.235Z,24.99
2019-03-29T16:27:48.761Z,24.88
2019-03-29T16:30:17.923Z,24.74
2019-03-29T16:32:47.090Z,24.62
2019-03-29T16:35:16.633Z,24.51
2019-03-29T16:37:56.541Z,24.40
2019-03-29T16:40:16.345Z,24.29
2019-03-29T16:42:45.516Z,24.19
2019-03-29T16:45:14.533Z,24.10
2019-03-29T16:47:43.597Z,23.99
2019-03-29T16:50:12.822Z,23.92
2019-03-29T16:52:41.761Z,23.85
2019-03-29T16:55:14.099Z,23.77
2019-03-29T16:57:44.098Z,23.68
2019-03-29T17:00:13.832Z,23.60
2019-03-29T17:02:43.240Z,23.52
2019-03-29T17:05:12.191Z,23.43
2019-03-29T17:07:41.086Z,23.33
2019-03-29T17:10:10.057Z,23.25
2019-03-29T17:12:38.999Z,23.16
2019-03-29T17:15:08.149Z,23.07
2019-03-29T17:17:37.190Z,22.98
2019-03-29T17:20:07.075Z,22.87
2019-03-29T17:22:36.894Z,22.79
2019-03-29T17:25:06.709Z,22.69
2019-03-29T17:27:35.579Z,22.60
2019-03-29T17:30:07.329Z,22.52
2019-03-29T17:32:36.662Z,22.43
2019-03-29T17:35:07.848Z,22.30
2019-03-29T17:37:36.706Z,22.22
2019-03-29T17:40:07.299Z,22.14
2019-03-29T17:42:36.380Z,22.04
2019-03-29T17:45:06.810Z,21.97
2019-03-29T17:47:35.948Z,21.90
2019-03-29T17:50:05.852Z,21.84
2019-03-29T17:52:35.165Z,21.77
2019-03-29T17:55:04.747Z,21.70
2019-03-29T17:57:33.792Z,21.62
2019-03-29T18:00:04.099Z,21.53
2019-03-29T18:02:32.913Z,21.45
2019-03-29T18:05:02.080Z,21.37
2019-03-29T18:07:31.200Z,21.29
2019-03-29T18:10:00.388Z,21.20
2019-03-29T18:12:29.395Z,21.12
2019-03-29T18:14:58.292Z,21.02
2019-03-29T18:17:27.198Z,20.95
2019-03-29T18:19:56.193Z,20.88
2019-03-29T18:22:25.009Z,20.79
2019-03-29T18:24:54.021Z,20.69
2019-03-29T18:27:23.998Z,20.59
2019-03-29T18:29:53.020Z,20.51
2019-03-29T18:32:22.536Z,20.41
2019-03-29T18:34:52.557Z,20.32
2019-03-29T18:37:23.406Z,20.22
2019-03-29T18:39:54.995Z,20.12
2019-03-29T18:42:23.174Z,20.03
2019-03-29T18:44:52.320Z,19.93
2019-03-29T18:47:22.739Z,19.82
2019-03-29T18:49:51.890Z,19.73
2019-03-29T18:52:20.884Z,19.63
2019-03-29T18:54:49.863Z,19.53
2019-03-29T18:57:18.983Z,19.42
2019-03-29T18:59:48.295Z,19.31
2019-03-29T19:02:17.183Z,19.17
2019-03-29T19:04:46.628Z,19.05
2019-03-29T19:07:20.088Z,18.96
2019-03-29T19:09:49.168Z,18.89
2019-03-29T19:12:19.127Z,18.79
2019-03-29T19:14:48.252Z,18.72
2019-03-29T19:17:17.412Z,18.63
2019-03-29T19:19:46.447Z,18.54
2019-03-29T19:22:15.595Z,18.42
2019-03-29T19:24:44.934Z,18.30
2019-03-29T19:27:13.860Z,18.19
2019-03-29T19:29:43.473Z,18.08
2019-03-29T19:32:13.337Z,18.00
2019-03-29T19:34:44.341Z,17.93
2019-03-29T19:37:15.545Z,17.83
2019-03-29T19:39:44.626Z,17.67
2019-03-29T19:42:26.726Z,17.53
2019-03-29T19:44:56.455Z,17.38
2019-03-29T19:47:26.083Z,17.23
2019-03-29T19:49:55.633Z,17.10
2019-03-29T19:52:25.167Z,17.00
2019-03-29T19:55:02.799Z,16.90
2019-03-29T19:57:31.862Z,16.81
2019-03-29T20:00:02.080Z,16.72
2019-03-29T20:02:33.047Z,16.60
2019-03-29T20:05:14.036Z,16.54
2019-03-29T20:07:43.002Z,16.47
2019-03-29T20:10:11.994Z,16.39
2019-03-29T20:12:40.949Z,16.31
2019-03-29T20:15:10.087Z,16.22
2019-03-29T20:17:39.076Z,16.13
2019-03-29T20:20:09.867Z,16.03
2019-03-29T20:22:38.775Z,15.96
2019-03-29T20:25:07.773Z,15.89
2019-03-29T20:27:38.555Z,15.83
2019-03-29T20:30:10.693Z,15.78
2019-03-29T20:32:48.757Z,15.72
2019-03-29T20:35:17.658Z,15.68
2019-03-29T20:37:47.618Z,15.64
2019-03-29T20:40:16.571Z,15.60
2019-03-29T20:42:46.501Z,15.54
2019-03-29T20:45:15.410Z,15.50
2019-03-29T20:47:44.396Z,15.47
2019-03-29T20:50:14.202Z,15.46
2019-03-29T20:52:43.607Z,15.42
2019-03-29T20:55:13.323Z,15.38
2019-03-29T20:57:42.698Z,15.34
2019-03-29T21:00:20.996Z,15.29
2019-03-29T21:02:49.966Z,15.22
2019-03-29T21:05:19.105Z,15.14
2019-03-29T21:07:48.498Z,15.07
2019-03-29T21:10:18.726Z,15.02
2019-03-29T21:12:47.907Z,14.96
2019-03-29T21:15:17.396Z,14.90
2019-03-29T21:17:56.468Z,14.84
2019-03-29T21:20:19.890Z,14.73
2019-03-29T21:22:49.360Z,14.67
2019-03-29T21:25:18.345Z,14.59
2019-03-29T21:27:47.276Z,14.53
2019-03-29T21:30:16.400Z,14.47
2019-03-29T21:32:45.833Z,14.39
2019-03-29T21:35:14.769Z,14.33
2019-03-29T21:37:43.891Z,14.26
2019-03-29T21:40:13.435Z,14.20
2019-03-29T21:42:42.359Z,14.17
2019-03-29T21:45:12.868Z,14.15
2019-03-29T21:47:41.971Z,14.09
2019-03-29T21:50:11.967Z,14.05
2019-03-29T21:52:40.902Z,14.01
2019-03-29T21:55:10.046Z,13.96
2019-03-29T21:57:39.010Z,13.91
2019-03-29T22:00:10.279Z,13.89
2019-03-29T22:02:39.267Z,13.86
2019-03-29T22:05:10.344Z,13.84
2019-03-29T22:07:39.457Z,13.79
2019-03-29T22:10:10.618Z,13.73
2019-03-29T22:12:42.840Z,13.69
2019-03-29T22:15:11.196Z,13.65
2019-03-29T22:17:40.079Z,13.61
2019-03-29T22:20:09.472Z,13.58
2019-03-29T22:22:38.391Z,13.53
2019-03-29T22:25:08.745Z,13.49
2019-03-29T22:27:37.981Z,13.43
2019-03-29T22:30:08.755Z,13.39
2019-03-29T22:32:38.771Z,13.35
2019-03-29T22:35:08.066Z,13.33
2019-03-29T22:37:36.945Z,13.29
2019-03-29T22:40:08.061Z,13.25
2019-03-29T22:42:36.955Z,13.21
2019-03-29T22:45:08.978Z,13.17
2019-03-29T22:47:37.899Z,13.11
2019-03-29T22:50:07.215Z,13.06
2019-03-29T22:52:37.304Z,13.02
2019-03-29T22:55:06.728Z,13.00
2019-03-29T22:57:35.608Z,12.95
2019-03-29T23:00:15.376Z,12.92
2019-03-29T23:02:46.373Z,12.89
2019-03-29T23:05:15.229Z,12.84
2019-03-29T23:07:45.238Z,12.82
2019-03-29T23:10:14.115Z,12.79
2019-03-29T23:12:43.464Z,12.77
2019-03-29T23:15:12.524Z,12.74
2019-03-29T23:17:41.881Z,12.70
2019-03-29T23:20:11.251Z,12.67
2019-03-29T23:22:40.101Z,12.62
2019-03-29T23:25:10.285Z,12.56
2019-03-29T23:27:39.159Z,12.55
2019-03-29T23:30:08.519Z,12.54
2019-03-29T23:32:37.546Z,12.54
2019-03-29T23:35:08.019Z,12.53
2019-03-29T23:37:36.903Z,12.52
2019-03-29T23:40:05.968Z,12.47
2019-03-29T23:42:35.993Z,12.45
2019-03-29T23:45:05.798Z,12.42
2019-03-29T23:47:34.669Z,12.39
2019-03-29T23:50:04.352Z,12.36
2019-03-29T23:52:33.183Z,12.33
2019-03-29T23:55:02.423Z,12.34
2019-03-29T23:57:32.276Z,12.32
